Time;durP1;ratioP1;P1;durP2;ratioP2;P2;SDS_P1;SDS_P2;PMS_P1;PMS_P2;Temp;Humidity;BMP_temperature;BMP_pressure;BME280_temperature;BME280_humidity;BME280_pressure;Samples;Min_cycle;Max_cycle;Signal;HPM_P1;HPM_P2
2022/10/10 00:00:36;;;;;;;7.55;3.08;;;9.00;99.90;;;;;;5055331;28;20082;-71
2022/10/10 00:03:02;;;;;;;7.57;2.67;;;9.00;99.90;;;;;;5089641;28;20044;-71
2022/10/10 00:05:28;;;;;;;6.97;3.30;;;8.90;99.90;;;;;;5087392;28;20043;-71
2022/10/10 00:07:53;;;;;;;8.63;2.97;;;8.90;99.90;;;;;;5061637;28;20114;-71
2022/10/10 00:10:19;;;;;;;8.27;3.17;;;8.90;99.90;;;;;;5052571;28;20128;-71
2022/10/10 00:12:46;;;;;;;6.50;2.83;;;8.90;99.90;;;;;;5054029;28;20051;-71
2022/10/10 00:15:13;;;;;;;7.68;2.65;;;8.90;99.90;;;;;;5060500;28;20049;-71
2022/10/10 00:17:41;;;;;;;8.77;3.30;;;8.90;99.90;;;;;;5051668;28;20097;-71
2022/10/10 00:20:08;;;;;;;6.70;3.05;;;9.00;99.90;;;;;;5063003;28;20056;-71
2022/10/10 00:22:33;;;;;;;7.93;3.20;;;8.80;99.90;;;;;;5055277;28;20029;-71
2022/10/10 00:24:59;;;;;;;8.65;3.00;;;8.80;99.90;;;;;;5054677;28;20040;-71
2022/10/10 00:27:25;;;;;;;8.93;3.38;;;8.80;99.90;;;;;;5056731;28;20045;-71
2022/10/10 00:29:50;;;;;;;9.90;3.30;;;8.80;99.90;;;;;;5042436;28;20102;-71
2022/10/10 00:32:16;;;;;;;9.45;3.20;;;8.80;99.90;;;;;;5063712;28;20040;-71
2022/10/10 00:34:42;;;;;;;10.00;3.17;;;8.80;99.90;;;;;;5045153;28;20048;-71
2022/10/10 00:37:08;;;;;;;9.60;3.80;;;8.80;99.90;;;;;;5038202;28;20067;-71
2022/10/10 00:39:33;;;;;;;10.50;3.58;;;8.80;99.90;;;;;;5058735;28;20055;-71
2022/10/10 00:42:02;;;;;;;8.55;3.20;;;8.90;99.90;;;;;;5055624;28;20051;-72
2022/10/10 00:44:27;;;;;;;10.27;3.25;;;8.90;99.90;;;;;;5042536;28;20048;-71
2022/10/10 00:46:53;;;;;;;9.18;3.25;;;8.80;99.90;;;;;;5051842;28;20050;-71
2022/10/10 00:49:23;;;;;;;10.98;3.58;;;8.80;99.90;;;;;;5041291;28;20504;-71
2022/10/10 00:51:52;;;;;;;6.82;3.42;;;8.80;99.90;;;;;;5055105;28;20052;-72
2022/10/10 00:54:20;;;;;;;8.95;3.38;;;8.80;99.90;;;;;;5057118;28;20414;-71
2022/10/10 00:57:17;;;;;;;8.98;3.25;;;8.80;99.90;;;;;;5064287;28;20925;-70
2022/10/10 00:59:45;;;;;;;8.55;2.90;;;8.80;99.90;;;;;;5059615;28;20052;-71
2022/10/10 01:02:10;;;;;;;8.63;3.03;;;8.90;99.90;;;;;;5065043;28;20379;-71
2022/10/10 01:04:40;;;;;;;9.25;3.20;;;8.90;99.90;;;;;;5065542;28;20182;-71
2022/10/10 01:07:16;;;;;;;6.80;3.08;;;9.00;99.90;;;;;;5066015;28;20049;-71
2022/10/10 01:09:44;;;;;;;9.07;3.40;;;8.80;99.90;;;;;;5048160;28;20056;-72
2022/10/10 01:12:26;;;;;;;10.10;3.30;;;8.80;99.90;;;;;;5066727;28;20045;-71
2022/10/10 01:15:07;;;;;;;10.43;3.38;;;8.80;99.90;;;;;;5065654;28;20128;-71
2022/10/10 01:18:08;;;;;;;11.32;3.47;;;8.80;99.90;;;;;;5064819;28;20407;-71
2022/10/10 01:21:00;;;;;;;9.25;3.35;;;8.80;99.90;;;;;;5064377;28;20088;-72
2022/10/10 01:23:54;;;;;;;8.88;3.47;;;8.80;99.90;;;;;;5064775;28;20529;-71
2022/10/10 01:26:50;;;;;;;9.00;3.63;;;8.80;99.90;;;;;;5065682;28;20051;-71
2022/10/10 01:29:29;;;;;;;8.23;3.53;;;8.80;99.90;;;;;;5063407;28;20417;-70
2022/10/10 01:32:10;;;;;;;10.07;3.22;;;8.80;99.90;;;;;;5065077;28;20151;-71
2022/10/10 01:34:40;;;;;;;6.80;3.70;;;8.80;99.90;;;;;;5062806;28;20508;-70
2022/10/10 01:37:23;;;;;;;6.00;3.33;;;8.70;99.90;;;;;;5064346;28;20075;-70
2022/10/10 01:39:59;;;;;;;7.20;3.70;;;8.70;99.90;;;;;;5097561;28;20283;-70
2022/10/10 01:42:34;;;;;;;6.22;3.03;;;8.70;99.90;;;;;;5064432;28;20043;-71
2022/10/10 01:45:00;;;;;;;8.60;3.80;;;8.70;99.90;;;;;;5092506;28;20098;-70
2022/10/10 01:47:25;;;;;;;8.52;3.58;;;8.60;99.90;;;;;;5067215;28;20037;-70
2022/10/10 01:49:56;;;;;;;9.00;4.13;;;8.60;99.90;;;;;;5063869;28;20037;-70
2022/10/10 01:52:25;;;;;;;8.70;3.60;;;8.60;99.90;;;;;;5064022;28;20415;-71
2022/10/10 01:55:08;;;;;;;8.93;3.80;;;8.60;99.90;;;;;;5064337;28;20377;-71
2022/10/10 01:57:52;;;;;;;9.38;4.32;;;8.60;99.90;;;;;;5063565;28;20048;-71
2022/10/10 02:00:18;;;;;;;9.10;4.00;;;8.60;99.90;;;;;;5064439;28;20048;-71
2022/10/10 02:02:50;;;;;;;8.85;3.83;;;8.60;99.90;;;;;;5064780;28;20689;-71
2022/10/10 02:05:38;;;;;;;9.30;4.20;;;8.50;99.90;;;;;;5047541;28;20040;-71
2022/10/10 02:08:16;;;;;;;8.15;3.80;;;8.60;99.90;;;;;;5064672;28;20119;-71
2022/10/10 02:10:58;;;;;;;9.85;4.18;;;8.50;99.90;;;;;;5063807;28;20127;-71
2022/10/10 02:13:31;;;;;;;9.73;4.05;;;8.50;99.90;;;;;;5060830;28;20064;-71
2022/10/10 02:15:59;;;;;;;8.55;4.00;;;8.50;99.90;;;;;;5063428;28;20036;-71
2022/10/10 02:18:32;;;;;;;9.60;3.65;;;8.50;99.90;;;;;;5063847;28;20374;-71
2022/10/10 02:21:01;;;;;;;11.38;4.20;;;8.50;99.90;;;;;;5064879;28;20052;-71
2022/10/10 02:23:27;;;;;;;12.68;4.45;;;8.50;99.90;;;;;;5066751;28;20045;-71
2022/10/10 02:25:55;;;;;;;9.50;4.50;;;8.50;99.90;;;;;;5067274;28;20075;-71
2022/10/10 02:28:50;;;;;;;10.40;3.85;;;8.50;99.90;;;;;;5068442;28;20040;-71
2022/10/10 02:31:26;;;;;;;8.40;3.78;;;8.50;99.90;;;;;;5067625;28;20059;-71
2022/10/10 02:34:03;;;;;;;8.88;4.43;;;8.50;99.90;;;;;;5067152;28;20048;-71
2022/10/10 02:36:30;;;;;;;11.23;4.18;;;8.40;99.90;;;;;;5050846;28;20050;-71
2022/10/10 02:38:58;;;;;;;7.10;4.50;;;8.50;99.90;;;;;;5069273;28;20055;-71
2022/10/10 02:41:24;;;;;;;9.27;4.18;;;8.40;99.90;;;;;;5067497;28;20047;-71
2022/10/10 02:43:51;;;;;;;9.80;4.07;;;8.40;99.90;;;;;;5066476;28;20048;-71
2022/10/10 02:46:17;;;;;;;11.13;4.07;;;8.40;99.90;;;;;;5069856;28;20055;-71
2022/10/10 02:48:43;;;;;;;8.32;3.90;;;8.40;99.90;;;;;;5066339;28;20131;-71
2022/10/10 02:51:09;;;;;;;12.27;4.88;;;8.40;99.90;;;;;;5066846;28;20041;-71
2022/10/10 02:53:36;;;;;;;7.00;4.30;;;8.40;99.90;;;;;;5064207;28;20036;-70
2022/10/10 02:56:02;;;;;;;8.38;4.72;;;8.40;99.90;;;;;;5068985;28;20505;-71
2022/10/10 02:58:28;;;;;;;8.57;4.50;;;8.30;99.90;;;;;;5061437;28;20044;-71
2022/10/10 03:00:53;;;;;;;13.48;4.38;;;8.30;99.90;;;;;;5068121;28;20113;-71
2022/10/10 03:03:19;;;;;;;8.73;4.70;;;8.80;99.90;;;;;;5068245;28;20070;-71
2022/10/10 03:05:45;;;;;;;9.43;4.32;;;8.30;99.90;;;;;;5049892;28;20040;-70
2022/10/10 03:08:10;;;;;;;10.27;5.00;;;8.30;99.90;;;;;;5066761;28;20056;-71
2022/10/10 03:10:36;;;;;;;8.38;4.63;;;8.30;99.90;;;;;;5049779;28;20540;-71
2022/10/10 03:13:02;;;;;;;9.23;4.45;;;8.20;99.90;;;;;;5064410;28;20067;-70
2022/10/10 03:15:28;;;;;;;9.73;4.35;;;8.20;99.90;;;;;;5068993;28;20173;-71
2022/10/10 03:17:53;;;;;;;10.55;5.03;;;8.50;99.90;;;;;;5051371;28;20498;-70
2022/10/10 03:20:19;;;;;;;8.73;4.70;;;8.20;99.90;;;;;;5066285;28;20052;-71
2022/10/10 03:22:45;;;;;;;7.90;4.57;;;8.20;99.90;;;;;;5063860;28;20068;-71
2022/10/10 03:25:10;;;;;;;11.95;4.80;;;8.20;99.90;;;;;;5067234;28;20075;-70
2022/10/10 03:27:36;;;;;;;9.73;4.75;;;8.10;99.90;;;;;;5067142;28;20044;-71
2022/10/10 03:30:03;;;;;;;10.10;5.03;;;8.20;99.90;;;;;;5051319;28;20534;-70
2022/10/10 03:32:29;;;;;;;10.93;5.20;;;8.10;99.90;;;;;;5067518;28;20460;-70
2022/10/10 03:34:55;;;;;;;9.52;4.85;;;8.10;99.90;;;;;;5065881;28;20043;-70
2022/10/10 03:37:20;;;;;;;9.35;5.00;;;8.10;99.90;;;;;;5063991;28;20040;-71
2022/10/10 03:39:46;;;;;;;10.38;4.60;;;8.10;99.90;;;;;;5065660;28;20040;-71
2022/10/10 03:42:12;;;;;;;10.10;5.07;;;8.10;99.90;;;;;;5066779;28;20044;-70
2022/10/10 03:44:37;;;;;;;10.52;5.15;;;8.10;99.90;;;;;;5067110;28;20043;-70
2022/10/10 03:47:03;;;;;;;10.93;5.15;;;8.00;99.90;;;;;;5065063;28;20048;-70
2022/10/10 03:49:29;;;;;;;10.45;5.00;;;8.10;99.90;;;;;;5069953;28;20094;-71
2022/10/10 03:51:55;;;;;;;8.73;4.70;;;8.00;99.90;;;;;;5064508;28;20059;-71
2022/10/10 03:54:20;;;;;;;12.75;4.85;;;8.00;99.90;;;;;;5068256;28;20072;-71
2022/10/10 03:56:46;;;;;;;10.15;5.50;;;8.00;99.90;;;;;;5065861;28;20083;-71
2022/10/10 03:59:12;;;;;;;9.02;5.20;;;8.00;99.90;;;;;;5065305;28;20048;-71
2022/10/10 04:01:38;;;;;;;10.70;5.40;;;8.00;99.90;;;;;;5064827;28;20039;-72
2022/10/10 04:04:04;;;;;;;9.10;5.05;;;8.00;99.90;;;;;;5066762;28;20036;-71
2022/10/10 04:06:29;;;;;;;13.82;5.55;;;8.00;99.90;;;;;;5066247;28;20045;-71
2022/10/10 04:08:55;;;;;;;9.70;5.05;;;8.00;99.90;;;;;;5065205;28;20044;-71
2022/10/10 04:11:21;;;;;;;9.07;4.72;;;8.00;99.90;;;;;;5067807;28;20541;-71
2022/10/10 04:13:47;;;;;;;9.20;4.90;;;8.00;99.90;;;;;;5066891;28;20675;-71
2022/10/10 04:16:12;;;;;;;9.48;4.97;;;8.00;99.90;;;;;;5064787;28;20044;-71
2022/10/10 04:18:38;;;;;;;11.40;5.57;;;8.00;99.90;;;;;;5064155;28;20071;-70
2022/10/10 04:21:05;;;;;;;10.18;5.32;;;8.00;99.90;;;;;;5067507;28;20044;-71
2022/10/10 04:23:31;;;;;;;9.70;5.18;;;8.00;99.90;;;;;;5048610;28;20060;-71
2022/10/10 04:25:57;;;;;;;12.27;5.47;;;8.00;99.90;;;;;;5065487;28;20131;-71
2022/10/10 04:28:23;;;;;;;9.95;5.18;;;8.00;99.90;;;;;;5065957;28;20120;-71
2022/10/10 04:30:49;;;;;;;10.48;5.55;;;8.00;99.90;;;;;;5068715;28;20472;-71
2022/10/10 04:33:14;;;;;;;13.23;5.32;;;8.00;99.90;;;;;;5063484;28;20040;-71
2022/10/10 04:35:40;;;;;;;10.60;5.30;;;7.90;99.90;;;;;;5067824;28;20076;-71
2022/10/10 04:38:06;;;;;;;9.18;5.03;;;8.00;99.90;;;;;;5064864;28;20051;-71
2022/10/10 04:40:32;;;;;;;10.98;5.68;;;8.00;99.90;;;;;;5065192;28;20056;-71
2022/10/10 04:42:58;;;;;;;12.70;5.72;;;8.00;99.90;;;;;;5066791;28;20052;-71
2022/10/10 04:45:26;;;;;;;9.65;5.25;;;8.00;99.90;;;;;;5064714;28;20028;-70
2022/10/10 04:47:55;;;;;;;9.30;5.60;;;8.00;99.90;;;;;;5065555;28;20040;-71
2022/10/10 04:50:21;;;;;;;10.90;5.25;;;8.00;99.90;;;;;;5064458;28;20104;-71
2022/10/10 04:52:47;;;;;;;13.73;5.10;;;7.90;99.90;;;;;;5062507;28;20088;-71
2022/10/10 04:55:13;;;;;;;10.48;5.47;;;8.00;99.90;;;;;;5067188;28;20450;-71
2022/10/10 04:57:39;;;;;;;10.82;5.78;;;7.90;99.90;;;;;;5067112;28;20123;-71
2022/10/10 05:00:05;;;;;;;11.60;5.75;;;7.90;99.90;;;;;;5065480;28;20041;-71
2022/10/10 05:02:31;;;;;;;10.23;5.25;;;7.90;99.90;;;;;;5060597;28;20032;-71
2022/10/10 05:04:57;;;;;;;12.43;5.40;;;7.90;99.90;;;;;;5065549;28;20465;-71
2022/10/10 05:07:23;;;;;;;9.70;5.20;;;7.90;99.90;;;;;;5064945;28;20055;-71
2022/10/10 05:09:49;;;;;;;10.90;5.40;;;7.90;99.90;;;;;;5063829;28;20037;-70
2022/10/10 05:12:14;;;;;;;10.05;5.00;;;7.90;99.90;;;;;;5067784;28;20041;-71
2022/10/10 05:14:41;;;;;;;13.68;5.57;;;8.00;99.90;;;;;;5064454;28;20746;-71
2022/10/10 05:17:06;;;;;;;11.48;5.40;;;8.40;99.90;;;;;;5062613;28;20052;-71
2022/10/10 05:19:32;;;;;;;12.95;5.80;;;7.90;99.90;;;;;;5047593;28;20591;-71
2022/10/10 05:21:58;;;;;;;13.00;5.63;;;7.90;99.90;;;;;;5063311;28;20395;-71
2022/10/10 05:24:23;;;;;;;10.63;5.55;;;7.90;99.90;;;;;;5063671;28;20055;-71
2022/10/10 05:26:49;;;;;;;14.63;5.78;;;7.90;99.90;;;;;;5061096;28;20582;-71
2022/10/10 05:29:15;;;;;;;12.70;5.63;;;7.90;99.90;;;;;;5064287;28;20036;-71
2022/10/10 05:31:40;;;;;;;11.48;5.25;;;7.80;99.90;;;;;;5064086;28;20050;-71
2022/10/10 05:34:11;;;;;;;9.18;5.65;;;7.80;99.90;;;;;;5059432;28;20055;-71
2022/10/10 05:36:36;;;;;;;11.63;5.43;;;7.80;99.90;;;;;;5057510;28;20060;-71
2022/10/10 05:39:02;;;;;;;12.00;6.18;;;8.20;99.90;;;;;;5051470;28;20056;-71
2022/10/10 05:41:28;;;;;;;10.25;5.78;;;7.80;99.90;;;;;;5048302;28;20041;-71
2022/10/10 05:43:53;;;;;;;12.60;6.00;;;8.30;99.90;;;;;;5089209;28;20235;-71
2022/10/10 05:46:22;;;;;;;9.85;5.68;;;7.80;99.90;;;;;;5059927;28;20394;-71
2022/10/10 05:48:47;;;;;;;12.15;6.10;;;7.80;99.90;;;;;;5087110;28;20219;-71
2022/10/10 05:51:13;;;;;;;14.88;5.97;;;8.10;99.90;;;;;;5056598;28;20176;-71
2022/10/10 05:53:39;;;;;;;10.68;5.82;;;7.80;99.90;;;;;;5040503;28;20097;-71
2022/10/10 05:56:05;;;;;;;10.88;5.78;;;7.80;99.90;;;;;;5045613;28;20036;-71
2022/10/10 05:58:30;;;;;;;11.93;5.93;;;7.80;99.90;;;;;;5036207;28;20079;-72
2022/10/10 06:01:02;;;;;;;12.25;6.07;;;7.80;99.90;;;;;;5031490;28;20406;-71
2022/10/10 06:03:28;;;;;;;11.02;5.68;;;7.80;99.90;;;;;;5054022;28;20040;-71
2022/10/10 06:05:54;;;;;;;12.38;6.25;;;7.80;99.90;;;;;;5044546;28;20066;-72
2022/10/10 06:08:20;;;;;;;13.30;5.78;;;7.80;99.90;;;;;;5048463;28;20040;-71
2022/10/10 06:10:46;;;;;;;12.32;6.63;;;7.80;99.90;;;;;;5043155;28;20400;-71
2022/10/10 06:13:13;;;;;;;13.30;6.90;;;7.80;99.90;;;;;;5046268;28;20049;-71
2022/10/10 06:15:39;;;;;;;15.85;6.13;;;7.80;99.90;;;;;;5054013;28;20051;-72
2022/10/10 06:18:05;;;;;;;10.88;6.50;;;8.20;99.90;;;;;;5057960;28;20111;-71
2022/10/10 06:20:37;;;;;;;13.07;6.47;;;7.80;99.90;;;;;;5060061;28;20593;-71
2022/10/10 06:23:03;;;;;;;10.20;5.90;;;7.80;99.90;;;;;;5053270;28;20054;-71
2022/10/10 06:25:31;;;;;;;13.23;6.03;;;7.90;99.90;;;;;;5050147;28;20106;-71
2022/10/10 06:27:56;;;;;;;12.27;6.07;;;7.90;99.90;;;;;;5058111;28;20532;-71
2022/10/10 06:30:22;;;;;;;14.27;6.55;;;7.90;99.90;;;;;;5052721;28;20048;-71
2022/10/10 06:32:48;;;;;;;12.13;6.32;;;7.90;99.90;;;;;;5064400;28;20448;-71
2022/10/10 06:35:14;;;;;;;14.70;6.63;;;7.90;99.90;;;;;;5058329;28;20051;-72
2022/10/10 06:37:39;;;;;;;11.90;6.45;;;7.90;99.90;;;;;;5032401;28;20064;-72
2022/10/10 06:40:05;;;;;;;11.88;6.07;;;8.00;99.90;;;;;;5062165;28;20150;-71
2022/10/10 06:42:31;;;;;;;13.25;6.88;;;8.00;99.90;;;;;;5065860;28;20292;-71
2022/10/10 06:44:57;;;;;;;12.23;6.38;;;8.00;99.90;;;;;;5066583;28;20138;-72
2022/10/10 06:47:23;;;;;;;13.43;6.20;;;8.40;99.90;;;;;;5052164;28;20071;-72
2022/10/10 06:49:48;;;;;;;11.75;6.80;;;8.10;99.90;;;;;;5044135;28;22272;-71
2022/10/10 06:52:14;;;;;;;13.68;6.78;;;8.10;99.90;;;;;;5048290;28;20083;-71
2022/10/10 06:54:40;;;;;;;12.95;6.47;;;8.20;99.90;;;;;;5046319;28;20040;-71
2022/10/10 06:57:06;;;;;;;13.07;6.47;;;8.20;99.90;;;;;;5045520;28;20049;-72
2022/10/10 06:59:32;;;;;;;15.68;6.40;;;8.20;99.90;;;;;;5045238;28;20050;-71
2022/10/10 07:01:59;;;;;;;10.15;6.28;;;8.30;99.90;;;;;;5045429;28;20744;-71
2022/10/10 07:04:24;;;;;;;11.35;6.40;;;8.40;99.90;;;;;;5078616;28;20052;-71
2022/10/10 07:06:50;;;;;;;11.15;6.03;;;8.40;99.90;;;;;;5069865;28;20066;-71
2022/10/10 07:09:17;;;;;;;15.80;6.15;;;8.50;99.90;;;;;;5051758;28;20520;-71
2022/10/10 07:11:44;;;;;;;14.15;6.50;;;8.50;99.90;;;;;;5056418;28;20509;-72
2022/10/10 07:14:13;;;;;;;13.18;6.60;;;8.60;99.90;;;;;;5043141;28;20538;-72
2022/10/10 07:16:39;;;;;;;11.60;6.00;;;8.70;99.90;;;;;;5076635;28;20581;-71
2022/10/10 07:19:05;;;;;;;12.63;7.18;;;8.80;99.90;;;;;;5074754;28;20051;-71
2022/10/10 07:21:30;;;;;;;13.90;6.28;;;8.80;99.90;;;;;;5072379;28;20043;-71
2022/10/10 07:23:56;;;;;;;10.80;6.15;;;8.90;99.90;;;;;;5044823;28;20081;-71
2022/10/10 07:26:25;;;;;;;11.73;6.25;;;8.90;99.90;;;;;;5032799;28;20044;-72
2022/10/10 07:28:51;;;;;;;13.15;6.10;;;9.00;99.90;;;;;;5056908;28;20048;-71
2022/10/10 07:31:17;;;;;;;10.98;5.78;;;9.00;99.90;;;;;;5046819;28;20063;-72
2022/10/10 07:33:47;;;;;;;12.10;6.30;;;9.00;99.90;;;;;;5045667;28;20037;-72
2022/10/10 07:36:13;;;;;;;15.18;6.38;;;9.10;99.90;;;;;;5061607;28;20189;-72
2022/10/10 07:38:38;;;;;;;13.98;6.88;;;9.00;99.90;;;;;;5044840;28;20070;-71
2022/10/10 07:41:10;;;;;;;15.32;6.25;;;9.10;99.90;;;;;;5044668;28;20175;-72
2022/10/10 07:43:36;;;;;;;11.43;6.65;;;9.10;99.90;;;;;;5041204;28;20892;-71
2022/10/10 07:46:12;;;;;;;11.07;5.80;;;9.10;99.90;;;;;;5045217;28;20044;-71
2022/10/10 07:48:38;;;;;;;10.60;6.47;;;9.20;99.90;;;;;;5070436;28;20568;-71
2022/10/10 07:51:08;;;;;;;14.00;6.57;;;9.30;99.90;;;;;;5045047;28;20136;-72
2022/10/10 07:53:34;;;;;;;10.15;6.28;;;9.30;99.90;;;;;;5043210;28;20440;-71
2022/10/10 07:56:06;;;;;;;11.98;6.45;;;9.50;99.90;;;;;;5043449;28;20059;-72
2022/10/10 07:58:32;;;;;;;;;;;9.50;99.90;;;;;;5044867;28;20044;-71
2022/10/10 08:01:06;;;;;;;10.77;6.60;;;9.50;99.90;;;;;;5041634;28;21395;-72
2022/10/10 08:03:32;;;;;;;12.80;6.72;;;9.70;99.90;;;;;;5042301;28;20683;-72
2022/10/10 08:06:01;;;;;;;12.52;6.05;;;9.70;99.90;;;;;;5029108;28;20114;-72
2022/10/10 08:08:26;;;;;;;14.48;6.70;;;9.80;99.90;;;;;;5046444;28;20182;-71
2022/10/10 08:10:52;;;;;;;11.98;6.72;;;9.90;99.90;;;;;;5041845;28;20543;-71
2022/10/10 08:13:18;;;;;;;11.88;6.60;;;9.90;99.90;;;;;;5043948;28;20049;-71
2022/10/10 08:15:44;;;;;;;11.90;6.22;;;10.00;99.90;;;;;;5043436;28;20040;-70
2022/10/10 08:18:09;;;;;;;13.32;6.68;;;10.20;99.90;;;;;;5073341;28;20048;-71
2022/10/10 08:20:35;;;;;;;10.90;5.93;;;10.50;99.90;;;;;;5041824;28;20060;-71
2022/10/10 08:23:01;;;;;;;11.52;6.47;;;10.40;99.90;;;;;;5071639;28;20460;-72
2022/10/10 08:25:26;;;;;;;13.80;6.32;;;10.50;99.90;;;;;;5041610;28;20482;-72
2022/10/10 08:27:52;;;;;;;14.10;6.00;;;10.60;99.90;;;;;;5043278;28;20049;-72
2022/10/10 08:30:18;;;;;;;11.73;6.00;;;10.90;99.90;;;;;;5075928;28;20132;-72
2022/10/10 08:32:43;;;;;;;14.25;6.50;;;10.80;99.90;;;;;;5042234;28;20925;-71
2022/10/10 08:35:09;;;;;;;16.02;6.53;;;10.90;99.90;;;;;;5045486;28;20493;-71
2022/10/10 08:37:35;;;;;;;11.02;6.50;;;10.90;99.90;;;;;;5044626;28;20044;-71
2022/10/10 08:40:01;;;;;;;10.85;6.65;;;11.00;99.90;;;;;;5042718;28;20052;-70
2022/10/10 08:42:38;;;;;;;9.95;6.32;;;11.20;99.90;;;;;;5042260;28;20052;-71
2022/10/10 08:45:11;;;;;;;15.27;6.75;;;11.10;99.90;;;;;;5046447;28;20052;-70
2022/10/10 08:48:06;;;;;;;13.07;6.80;;;11.10;99.90;;;;;;5039401;28;20733;-71
2022/10/10 08:50:40;;;;;;;12.73;6.72;;;11.20;99.90;;;;;;5031345;28;20050;-71
2022/10/10 08:53:13;;;;;;;11.20;6.68;;;11.30;99.90;;;;;;5041032;28;20063;-70
2022/10/10 08:55:42;;;;;;;14.45;6.70;;;11.40;99.90;;;;;;5027826;28;20501;-70
2022/10/10 08:58:31;;;;;;;15.30;7.63;;;11.40;99.90;;;;;;5041943;28;20056;-72
2022/10/10 09:01:15;;;;;;;11.52;6.80;;;11.50;99.90;;;;;;5046143;28;20121;-69
2022/10/10 09:03:59;;;;;;;11.98;6.63;;;11.60;99.90;;;;;;5044411;28;20440;-69
2022/10/10 09:06:43;;;;;;;15.25;7.03;;;11.60;99.90;;;;;;5047605;28;20473;-69
2022/10/10 09:09:27;;;;;;;12.90;7.18;;;11.70;99.90;;;;;;5045467;28;20128;-70
2022/10/10 09:12:05;;;;;;;11.70;6.82;;;11.90;99.90;;;;;;5051682;28;20037;-70
2022/10/10 09:14:34;;;;;;;12.40;7.70;;;11.90;99.90;;;;;;5082116;28;20099;-69
2022/10/10 09:17:09;;;;;;;12.60;7.13;;;12.00;99.90;;;;;;5046558;28;20049;-69
2022/10/10 09:20:04;;;;;;;13.45;6.75;;;12.00;99.90;;;;;;5039191;28;20044;-71
2022/10/10 09:22:33;;;;;;;13.70;7.20;;;12.00;99.90;;;;;;5040294;28;20056;-69
2022/10/10 09:25:15;;;;;;;11.20;6.32;;;12.00;99.90;;;;;;5040853;28;20138;-69
2022/10/10 09:27:45;;;;;;;16.65;7.53;;;12.00;99.90;;;;;;5038819;28;20045;-70
2022/10/10 09:30:18;;;;;;;12.45;7.03;;;12.10;99.90;;;;;;5038070;28;20410;-69
2022/10/10 09:32:53;;;;;;;13.25;7.07;;;12.10;99.90;;;;;;5017914;28;20551;-70
2022/10/10 09:35:29;;;;;;;11.70;6.75;;;12.20;99.90;;;;;;5057726;28;20045;-69
2022/10/10 09:38:28;;;;;;;17.20;7.65;;;12.20;99.90;;;;;;5054956;28;20071;-69
2022/10/10 09:41:07;;;;;;;12.45;6.63;;;12.30;99.90;;;;;;5047293;28;20041;-69
2022/10/10 09:43:33;;;;;;;18.38;7.53;;;12.40;99.90;;;;;;5045592;28;20033;-69
2022/10/10 09:45:59;;;;;;;14.07;6.82;;;12.40;99.90;;;;;;5048375;28;20037;-70
2022/10/10 09:48:30;;;;;;;12.68;6.63;;;12.40;99.90;;;;;;5053250;28;20764;-69
2022/10/10 09:50:56;;;;;;;16.02;7.25;;;12.50;99.90;;;;;;5055029;28;20048;-70
2022/10/10 09:53:22;;;;;;;13.80;7.30;;;12.50;99.90;;;;;;5049334;28;20052;-69
2022/10/10 09:55:50;;;;;;;12.82;7.15;;;12.60;99.90;;;;;;5049292;28;20045;-70
2022/10/10 09:58:28;;;;;;;10.07;6.72;;;12.60;99.90;;;;;;5042015;28;20049;-69
2022/10/10 10:01:13;;;;;;;13.60;6.97;;;12.80;99.90;;;;;;5048797;28;20065;-69
2022/10/10 10:03:39;;;;;;;16.85;7.38;;;12.90;99.90;;;;;;5040206;28;20037;-69
2022/10/10 10:06:09;;;;;;;14.05;6.30;;;12.90;99.90;;;;;;5027528;28;20052;-70
2022/10/10 10:08:35;;;;;;;13.00;7.00;;;13.00;99.90;;;;;;5045671;28;20033;-69
2022/10/10 10:11:03;;;;;;;14.38;7.43;;;13.00;99.90;;;;;;5048990;28;20080;-70
2022/10/10 10:13:31;;;;;;;10.32;6.60;;;13.10;99.90;;;;;;5039763;28;20110;-70
2022/10/10 10:16:03;;;;;;;14.15;7.55;;;13.10;99.90;;;;;;5025862;28;20072;-70
2022/10/10 10:18:30;;;;;;;11.60;7.10;;;13.20;99.90;;;;;;5022257;28;20040;-69
2022/10/10 10:21:05;;;;;;;17.90;6.95;;;13.20;99.90;;;;;;5037227;28;20049;-70
2022/10/10 10:23:41;;;;;;;13.48;7.30;;;13.20;99.90;;;;;;5040059;28;20052;-70
2022/10/10 10:26:20;;;;;;;15.48;7.53;;;13.20;99.90;;;;;;5030602;28;20056;-69
2022/10/10 10:28:48;;;;;;;11.25;6.43;;;13.30;99.90;;;;;;5042530;28;20182;-69
2022/10/10 10:31:52;;;;;;;15.73;6.78;;;13.30;99.90;;;;;;5070558;28;20041;-69
2022/10/10 10:34:32;;;;;;;16.20;6.93;;;13.40;99.90;;;;;;5074144;28;20052;-70
2022/10/10 10:37:19;;;;;;;15.57;6.57;;;13.50;99.90;;;;;;5044463;28;20127;-69
2022/10/10 10:40:17;;;;;;;12.80;7.13;;;13.60;99.90;;;;;;5046414;28;20097;-70
2022/10/10 10:42:46;;;;;;;13.48;6.80;;;13.70;99.90;;;;;;5050145;28;20105;-69
2022/10/10 10:45:38;;;;;;;13.70;6.28;;;13.70;99.90;;;;;;5075877;28;22183;-69
2022/10/10 10:48:23;;;;;;;12.82;6.55;;;13.70;99.90;;;;;;5015700;28;20417;-69
2022/10/10 10:51:11;;;;;;;15.32;7.28;;;13.80;99.90;;;;;;5042892;28;20110;-69
2022/10/10 10:54:03;;;;;;;15.10;6.25;;;13.90;99.90;;;;;;5047355;28;20137;-69
2022/10/10 10:56:46;;;;;;;17.10;6.43;;;13.90;99.90;;;;;;5066352;28;20488;-70
2022/10/10 10:59:45;;;;;;;16.88;7.10;;;13.90;99.90;;;;;;5046436;28;20174;-70
2022/10/10 11:02:29;;;;;;;11.65;6.70;;;13.90;99.90;;;;;;5042518;28;20512;-69
2022/10/10 11:05:36;;;;;;;12.95;6.95;;;14.00;99.90;;;;;;5052447;28;20547;-69
2022/10/10 11:08:07;;;;;;;15.60;6.32;;;14.00;99.90;;;;;;5046115;28;20119;-69
2022/10/10 11:10:39;;;;;;;15.05;7.15;;;14.00;99.90;;;;;;5047510;28;20044;-70
2022/10/10 11:13:08;;;;;;;13.77;6.53;;;14.00;99.90;;;;;;5046270;28;20055;-70
2022/10/10 11:15:46;;;;;;;12.90;7.57;;;13.90;99.90;;;;;;5038253;28;20140;-69
2022/10/10 11:18:52;;;;;;;13.80;6.35;;;14.00;99.90;;;;;;5046559;28;20087;-70
2022/10/10 11:21:22;;;;;;;14.55;7.32;;;14.00;99.90;;;;;;5037444;28;20060;-70
2022/10/10 11:23:56;;;;;;;15.13;6.95;;;13.90;99.90;;;;;;5046221;28;20064;-70
2022/10/10 11:26:51;;;;;;;13.52;7.40;;;13.90;99.90;;;;;;5046535;28;20591;-70
2022/10/10 11:29:18;;;;;;;12.00;7.40;;;13.90;99.90;;;;;;5051646;28;20060;-70
2022/10/10 11:31:54;;;;;;;14.18;7.05;;;13.90;99.90;;;;;;5052366;28;20053;-70
2022/10/10 11:34:27;;;;;;;13.30;6.75;;;13.80;99.90;;;;;;5060004;28;20099;-70
2022/10/10 11:36:58;;;;;;;15.02;7.05;;;13.80;99.90;;;;;;5057877;28;20087;-70
2022/10/10 11:39:40;;;;;;;;;;;13.80;99.90;;;;;;5059751;28;20098;-70
2022/10/10 11:42:18;;;;;;;14.70;7.60;;;13.80;99.90;;;;;;5087030;28;19974;-70
2022/10/10 11:44:57;;;;;;;17.08;7.00;;;13.80;99.90;;;;;;5059369;28;20107;-70
2022/10/10 11:47:27;;;;;;;18.75;6.63;;;13.80;99.90;;;;;;5052210;28;20037;-70
2022/10/10 11:50:18;;;;;;;18.63;7.22;;;13.80;99.90;;;;;;5055917;28;20048;-70
2022/10/10 11:53:25;;;;;;;14.45;7.60;;;13.80;99.90;;;;;;5053735;28;20109;-70
2022/10/10 11:56:12;;;;;;;13.60;7.47;;;13.80;99.90;;;;;;5054851;28;20059;-70
2022/10/10 11:59:14;;;;;;;16.73;7.80;;;13.80;99.90;;;;;;5059663;28;20058;-69
2022/10/10 12:01:49;;;;;;;16.35;8.02;;;13.70;99.90;;;;;;5049868;28;20037;-70
2022/10/10 12:04:15;;;;;;;14.23;7.63;;;13.80;99.90;;;;;;5055107;28;20041;-69
2022/10/10 12:06:51;;;;;;;15.93;7.70;;;13.80;99.90;;;;;;5057792;28;20041;-70
2022/10/10 12:09:24;;;;;;;16.02;8.27;;;13.80;99.90;;;;;;5051509;28;20074;-70
2022/10/10 12:11:54;;;;;;;16.42;8.40;;;13.80;99.90;;;;;;5054393;28;20091;-70
2022/10/10 12:14:25;;;;;;;11.98;7.97;;;13.80;99.90;;;;;;5056033;28;21000;-70
2022/10/10 12:16:51;;;;;;;18.42;8.38;;;13.90;99.90;;;;;;5040189;28;20182;-70
2022/10/10 12:19:19;;;;;;;14.85;8.20;;;13.90;99.90;;;;;;5051829;28;20048;-70
2022/10/10 12:22:00;;;;;;;15.05;8.32;;;13.90;99.90;;;;;;5055980;28;20036;-70
2022/10/10 12:24:34;;;;;;;19.08;9.10;;;13.90;99.90;;;;;;5050001;28;20075;-69
2022/10/10 12:27:23;;;;;;;16.85;8.60;;;14.00;99.90;;;;;;5054336;28;20831;-70
2022/10/10 12:29:55;;;;;;;16.15;8.18;;;14.00;99.90;;;;;;5051489;28;20524;-70
2022/10/10 12:32:40;;;;;;;19.67;8.23;;;14.00;99.90;;;;;;5056136;28;20166;-70
2022/10/10 12:35:31;;;;;;;16.17;10.27;;;14.00;99.90;;;;;;5058320;28;20799;-70
2022/10/10 12:38:10;;;;;;;15.35;8.70;;;13.90;99.90;;;;;;5056004;28;20052;-70
2022/10/10 12:41:12;;;;;;;13.88;8.48;;;13.90;99.90;;;;;;5052055;28;20088;-71
2022/10/10 12:44:01;;;;;;;12.32;8.50;;;13.90;99.90;;;;;;5027036;28;20066;-71
2022/10/10 12:46:31;;;;;;;19.85;9.18;;;13.90;99.90;;;;;;5046235;28;20064;-71
2022/10/10 12:49:00;;;;;;;14.50;8.98;;;13.80;99.90;;;;;;5042433;28;20532;-70
2022/10/10 12:51:28;;;;;;;17.85;8.63;;;13.80;99.90;;;;;;5081764;28;20055;-71
2022/10/10 12:53:57;;;;;;;17.25;9.10;;;13.80;99.90;;;;;;5047934;28;20052;-71
2022/10/10 12:56:37;;;;;;;14.20;8.52;;;13.80;99.90;;;;;;5050763;28;20168;-70
2022/10/10 12:59:06;;;;;;;18.52;9.35;;;13.80;99.90;;;;;;5059174;28;20072;-69
2022/10/10 13:01:40;;;;;;;20.40;9.48;;;13.70;99.90;;;;;;5043744;28;20061;-70
2022/10/10 13:04:06;;;;;;;17.55;10.02;;;13.80;99.90;;;;;;5039709;28;20118;-70
2022/10/10 13:06:39;;;;;;;16.55;9.40;;;13.70;99.90;;;;;;5044016;28;20044;-70